Cold Bay, Alaska
Current Conditions -  °F | °C
As of 4:28 AM on Saturday 01 Nov 2014 (Local Time) from PACD Reporting Station
Overcast Overcast  
Wind Chill: 25°   Ceiling: 7000
Heat Index: 38°   Visibility: 10mi
Dew Point: 34°   Wind: 36mph
Humidity: 86%   Direction: 270°W
Pressure: 28.84"   Gusts: 43mph
Location:  55.18°N, 162.72°W
Report Text: PACD 011228Z 27031G37KT 10SM FEW017 SCT022 OVC070 03/01 A2884 RMK AO2 PK WND 25045/1200 RAB1154E08 P0000 T00330011
Loading
Personal Weather Stations






























Interactive Weather Map
Tropical Storm Tracking
New forecast layout! Learn more

10-Day Weather Forecast

Advertisements
Track Severe Weather on mobile